KDNL/DNL METAR and TAF weather

Enter ICAO airport designator
Station Type Date Time Source
KDNL METAR 2020/02/26 09:37 UTC NOAA

KDNL 260937Z AUTO 00000KT 1SM BR OVC003 16/14 A2986 RMK AO2 T01560139


Station Type Date Time Source
KDNL Decoded METAR 2020/02/26 09:37 UTC NOAA

AUGUSTA DANIEL FIELD, GA, United States (KDNL) 33-28N 82-02W 130M
Feb 26, 2020 - 04:37 AM EST / 2020.02.26 0937 UTC
Wind: Calm:0
Visibility: 1 mile(s):0
Sky conditions: overcast
Weather: mist
Temperature: 60.1 F (15.6 C)
Dew Point: 57.0 F (13.9 C)
Relative Humidity: 89%
Pressure (altimeter): 29.86 in. Hg (1011 hPa)
ob: KDNL 260937Z AUTO 00000KT 1SM BR OVC003 16/14 A2986 RMK AO2 T01560139
cycle: 9

Station Type Date Time Source
KDNL TAF 2020/02/26 09:06 UTC NOAA

TAF
AMD KDNL 260904Z 2609/2706 00000KT 6SM BR OVC003
TEMPO 2612/2614 5SM BR SCT005
FM261400 23006KT P6SM SCT025 BKN050
FM262100 27012G20KT P6SM BKN035

Example: see airport list